Time;durP1;ratioP1;P1;durP2;ratioP2;P2;SDS_P1;SDS_P2;PMS_P1;PMS_P2;Temp;Humidity;BMP_temperature;BMP_pressure;BME280_temperature;BME280_humidity;BME280_pressure;Samples;Min_cycle;Max_cycle;Signal;HPM_P1;HPM_P2
2023/05/12 00:01:13;;;;;;;9.52;4.93;;;16.50;60.20;;;;;;5034940;28;20404;-71
2023/05/12 00:03:39;;;;;;;7.82;4.88;;;16.50;59.90;;;;;;5035667;28;20100;-71
2023/05/12 00:06:06;;;;;;;12.15;5.45;;;16.40;59.70;;;;;;5035679;28;20108;-71
2023/05/12 00:08:32;;;;;;;11.68;5.28;;;16.40;59.70;;;;;;5033388;28;20439;-72
2023/05/12 00:10:58;;;;;;;7.95;5.10;;;16.40;59.50;;;;;;5036123;28;20216;-71
2023/05/12 00:13:24;;;;;;;13.00;5.13;;;16.40;59.50;;;;;;5036523;28;20037;-71
2023/05/12 00:15:50;;;;;;;8.52;5.10;;;16.30;59.40;;;;;;5034990;28;20034;-71
2023/05/12 00:18:16;;;;;;;7.97;4.90;;;16.30;59.50;;;;;;5036524;28;20056;-71
2023/05/12 00:20:43;;;;;;;10.02;5.25;;;16.30;59.60;;;;;;5035931;28;20133;-72
2023/05/12 00:23:09;;;;;;;9.07;5.57;;;16.30;59.50;;;;;;5035892;28;20029;-71
2023/05/12 00:25:35;;;;;;;9.77;5.18;;;16.30;59.60;;;;;;5036257;28;20510;-71
2023/05/12 00:28:00;;;;;;;9.75;4.72;;;16.20;59.50;;;;;;5035944;28;20045;-72
2023/05/12 00:30:27;;;;;;;8.38;4.75;;;16.20;59.50;;;;;;5034916;28;20033;-71
2023/05/12 00:32:52;;;;;;;9.15;5.50;;;16.20;59.60;;;;;;5035467;28;20041;-71
2023/05/12 00:35:19;;;;;;;11.55;5.45;;;16.20;59.90;;;;;;5033934;28;20040;-70
2023/05/12 00:37:45;;;;;;;10.82;4.82;;;16.20;59.50;;;;;;5032858;28;20033;-72
2023/05/12 00:40:11;;;;;;;9.15;4.88;;;16.20;59.70;;;;;;5034592;28;20060;-72
2023/05/12 00:42:37;;;;;;;9.75;4.82;;;16.20;59.70;;;;;;5018262;28;20535;-72
2023/05/12 00:45:04;;;;;;;11.52;5.25;;;16.10;59.70;;;;;;5033984;28;20040;-72
2023/05/12 00:47:31;;;;;;;9.60;5.50;;;16.10;59.90;;;;;;5032561;28;20033;-72
2023/05/12 00:49:58;;;;;;;10.82;5.55;;;16.10;59.80;;;;;;5036077;28;20159;-72
2023/05/12 00:52:24;;;;;;;9.68;4.85;;;16.10;59.80;;;;;;5034525;28;20044;-72
2023/05/12 00:54:50;;;;;;;8.00;5.10;;;16.10;59.80;;;;;;5033905;28;20131;-72
2023/05/12 00:57:17;;;;;;;8.05;4.95;;;16.00;59.70;;;;;;5025343;28;20037;-71
2023/05/12 00:59:43;;;;;;;8.02;5.15;;;16.00;59.70;;;;;;5015775;28;20500;-72
2023/05/12 01:02:09;;;;;;;10.15;4.80;;;16.00;59.70;;;;;;5014971;28;20057;-72
2023/05/12 01:04:37;;;;;;;7.15;4.82;;;16.00;59.60;;;;;;5047056;28;20037;-72
2023/05/12 01:07:08;;;;;;;6.82;5.18;;;16.00;59.70;;;;;;5047258;28;20543;-72
2023/05/12 01:09:35;;;;;;;7.68;5.00;;;16.00;59.60;;;;;;5001502;28;20609;-72
2023/05/12 01:12:03;;;;;;;7.85;4.95;;;16.00;59.70;;;;;;5042140;28;20038;-70
2023/05/12 01:14:30;;;;;;;8.95;4.95;;;16.00;59.60;;;;;;5000871;28;20393;-71
2023/05/12 01:17:00;;;;;;;9.85;5.57;;;16.00;59.70;;;;;;5008502;28;20779;-71
2023/05/12 01:19:42;;;;;;;9.63;4.97;;;16.00;59.50;;;;;;5014130;28;20037;-70
2023/05/12 01:22:11;;;;;;;10.50;5.68;;;16.00;59.50;;;;;;5029811;28;20425;-70
2023/05/12 01:24:46;;;;;;;9.80;4.50;;;16.00;59.50;;;;;;5030914;28;20038;-70
2023/05/12 01:27:14;;;;;;;7.97;4.80;;;15.90;59.40;;;;;;5012098;28;20674;-70
2023/05/12 01:29:42;;;;;;;12.18;5.18;;;15.90;59.30;;;;;;4997397;28;20065;-71
2023/05/12 01:32:09;;;;;;;10.88;5.25;;;15.90;59.30;;;;;;5004813;28;20456;-71
2023/05/12 01:34:35;;;;;;;8.60;4.60;;;15.90;59.10;;;;;;5029865;28;20586;-71
2023/05/12 01:37:01;;;;;;;9.10;4.70;;;15.90;59.00;;;;;;5013088;28;20041;-71
2023/05/12 01:39:28;;;;;;;6.07;4.80;;;15.90;58.90;;;;;;5013754;28;20131;-71
2023/05/12 01:41:55;;;;;;;8.43;4.63;;;15.90;58.80;;;;;;5012375;28;20030;-71
2023/05/12 01:44:22;;;;;;;7.50;4.35;;;15.80;58.60;;;;;;5013900;28;20037;-71
2023/05/12 01:46:48;;;;;;;12.18;4.53;;;15.80;58.50;;;;;;4998857;28;20076;-71
2023/05/12 01:49:14;;;;;;;7.53;4.78;;;15.80;58.90;;;;;;5013702;28;20041;-71
2023/05/12 01:51:40;;;;;;;9.80;4.70;;;15.80;58.20;;;;;;5012963;28;20424;-71
2023/05/12 01:54:06;;;;;;;7.13;4.43;;;15.80;58.20;;;;;;5014692;28;20046;-72
2023/05/12 01:56:36;;;;;;;6.60;4.22;;;15.80;58.10;;;;;;5005708;28;20447;-71
2023/05/12 01:59:02;;;;;;;9.88;4.15;;;15.90;58.10;;;;;;5047671;28;20034;-72
2023/05/12 02:01:28;;;;;;;9.15;4.43;;;15.80;58.10;;;;;;5013695;28;20511;-72
2023/05/12 02:03:56;;;;;;;7.45;4.13;;;15.80;58.10;;;;;;5013395;28;20033;-72
2023/05/12 02:06:25;;;;;;;11.70;4.45;;;15.90;58.10;;;;;;5013259;28;20396;-72
2023/05/12 02:08:51;;;;;;;6.60;4.40;;;15.90;57.90;;;;;;5018563;28;20031;-71
2023/05/12 02:11:18;;;;;;;6.55;4.43;;;15.80;57.80;;;;;;4997036;28;20037;-71
2023/05/12 02:13:44;;;;;;;8.73;4.13;;;15.90;57.80;;;;;;5013690;28;20111;-72
2023/05/12 02:16:11;;;;;;;7.60;3.88;;;16.00;57.80;;;;;;5015497;28;20029;-71
2023/05/12 02:18:37;;;;;;;6.75;4.15;;;16.10;57.70;;;;;;5018366;28;20034;-72
2023/05/12 02:21:07;;;;;;;6.75;4.32;;;16.10;58.30;;;;;;5017906;28;20515;-72
2023/05/12 02:23:33;;;;;;;6.07;3.90;;;16.20;57.70;;;;;;5017473;28;20038;-72
2023/05/12 02:25:59;;;;;;;6.57;4.30;;;16.30;57.70;;;;;;5017773;28;20589;-72
2023/05/12 02:28:25;;;;;;;9.07;4.75;;;16.40;57.70;;;;;;5004425;28;20561;-72
2023/05/12 02:30:52;;;;;;;7.80;4.50;;;16.50;57.60;;;;;;5017077;28;20037;-72
2023/05/12 02:33:20;;;;;;;5.68;4.10;;;16.60;57.60;;;;;;5015510;28;20041;-71
2023/05/12 02:35:46;;;;;;;7.65;4.18;;;16.70;57.30;;;;;;4988752;28;20034;-71
2023/05/12 02:38:12;;;;;;;5.35;4.20;;;16.80;57.20;;;;;;5018463;28;20044;-71
2023/05/12 02:40:38;;;;;;;8.80;4.80;;;16.90;56.90;;;;;;5032774;28;20365;-72
2023/05/12 02:43:05;;;;;;;8.07;4.20;;;17.00;56.80;;;;;;5017266;28;20049;-71
2023/05/12 02:45:31;;;;;;;5.13;3.88;;;17.10;56.60;;;;;;5016344;28;20034;-71
2023/05/12 02:47:57;;;;;;;5.93;4.20;;;17.10;56.50;;;;;;5017406;28;20843;-71
2023/05/12 02:50:23;;;;;;;7.80;4.50;;;17.20;56.80;;;;;;5017229;28;20088;-71
2023/05/12 02:52:50;;;;;;;7.35;4.43;;;17.20;56.70;;;;;;5015486;28;20030;-72
2023/05/12 02:55:16;;;;;;;7.32;4.50;;;17.20;56.60;;;;;;5016875;28;20060;-72
2023/05/12 02:57:43;;;;;;;9.48;4.90;;;17.20;56.60;;;;;;5017063;28;20393;-71
2023/05/12 03:00:09;;;;;;;7.65;4.18;;;17.30;56.50;;;;;;5016459;28;20030;-71
2023/05/12 03:02:38;;;;;;;6.25;4.30;;;17.20;56.40;;;;;;5016689;28;20042;-70
2023/05/12 03:05:07;;;;;;;5.80;4.15;;;17.20;56.20;;;;;;5016821;28;20037;-71
2023/05/12 03:07:33;;;;;;;7.63;3.90;;;17.20;56.20;;;;;;5015669;28;20030;-71
2023/05/12 03:10:00;;;;;;;5.07;3.78;;;17.20;56.10;;;;;;5019691;28;20034;-71
2023/05/12 03:12:28;;;;;;;6.30;4.20;;;17.20;56.10;;;;;;5006363;28;20094;-71
2023/05/12 03:14:55;;;;;;;7.72;3.70;;;17.20;55.90;;;;;;4999207;28;20120;-71
2023/05/12 03:17:21;;;;;;;6.65;4.10;;;17.20;55.70;;;;;;5015620;28;20069;-70
2023/05/12 03:19:47;;;;;;;5.70;4.00;;;17.30;55.70;;;;;;5016716;28;20057;-71
2023/05/12 03:22:16;;;;;;;5.85;3.90;;;17.20;55.40;;;;;;5015818;28;20041;-71
2023/05/12 03:24:42;;;;;;;5.75;3.80;;;17.20;55.40;;;;;;5016150;28;20042;-71
2023/05/12 03:27:08;;;;;;;6.07;4.00;;;17.20;55.30;;;;;;5016302;28;20044;-71
2023/05/12 03:29:35;;;;;;;5.35;3.83;;;17.20;55.20;;;;;;5013568;28;20037;-71
2023/05/12 03:32:01;;;;;;;8.38;4.40;;;17.30;55.10;;;;;;5015300;28;20503;-71
2023/05/12 03:34:27;;;;;;;7.18;4.20;;;17.30;55.00;;;;;;4998441;28;20128;-71
2023/05/12 03:36:57;;;;;;;7.85;3.80;;;17.30;55.00;;;;;;5015415;28;20042;-71
2023/05/12 03:39:23;;;;;;;8.20;4.15;;;17.30;54.90;;;;;;5021071;28;20030;-71
2023/05/12 03:41:50;;;;;;;5.72;3.78;;;17.30;54.80;;;;;;5015211;28;20496;-71
2023/05/12 03:44:17;;;;;;;6.28;4.10;;;17.40;54.80;;;;;;5014687;28;20518;-71
2023/05/12 03:46:43;;;;;;;6.25;3.45;;;17.40;54.80;;;;;;5017788;28;20026;-73
2023/05/12 03:49:09;;;;;;;6.47;3.58;;;17.50;54.70;;;;;;5031171;28;20033;-70
2023/05/12 03:51:36;;;;;;;7.15;3.70;;;17.70;54.60;;;;;;5011950;28;20111;-72
2023/05/12 03:54:02;;;;;;;6.43;3.80;;;17.90;54.10;;;;;;5014718;28;20492;-72
2023/05/12 03:56:28;;;;;;;5.57;3.53;;;18.10;53.60;;;;;;5015211;28;20029;-71
2023/05/12 03:58:54;;;;;;;5.75;3.60;;;18.30;53.30;;;;;;5017182;28;20037;-71
2023/05/12 04:01:20;;;;;;;3.03;2.70;;;18.50;53.00;;;;;;5014392;28;20073;-71
2023/05/12 04:03:47;;;;;;;4.95;3.15;;;18.60;52.50;;;;;;5015350;28;20089;-72
2023/05/12 04:06:13;;;;;;;9.10;3.63;;;18.70;52.30;;;;;;5017263;28;20030;-72
2023/05/12 04:08:39;;;;;;;5.85;2.80;;;18.80;52.20;;;;;;5019833;28;20096;-71
2023/05/12 04:11:07;;;;;;;3.40;3.00;;;18.80;52.10;;;;;;5014668;28;20045;-71
2023/05/12 04:13:33;;;;;;;5.63;3.15;;;18.90;52.10;;;;;;5014989;28;20135;-72
2023/05/12 04:15:59;;;;;;;5.30;3.30;;;19.00;52.10;;;;;;5013179;28;20033;-72
2023/05/12 04:18:26;;;;;;;5.57;3.03;;;19.00;52.00;;;;;;5012754;28;20060;-72
2023/05/12 04:20:53;;;;;;;4.70;2.92;;;19.20;51.90;;;;;;5001953;28;20026;-73
2023/05/12 04:23:19;;;;;;;4.15;2.92;;;19.30;51.80;;;;;;5015089;28;20021;-73
2023/05/12 04:25:46;;;;;;;3.03;2.65;;;19.40;51.50;;;;;;5014528;28;20041;-73
2023/05/12 04:28:12;;;;;;;3.75;2.60;;;19.70;51.20;;;;;;5013949;28;20042;-74
2023/05/12 04:30:40;;;;;;;4.00;3.10;;;19.90;50.90;;;;;;5014747;28;20429;-73
2023/05/12 04:33:07;;;;;;;5.55;3.00;;;20.00;50.70;;;;;;4996004;28;20045;-72
2023/05/12 04:35:34;;;;;;;5.22;2.83;;;20.20;50.50;;;;;;5016530;28;20260;-74
2023/05/12 04:38:01;;;;;;;3.92;2.70;;;20.40;50.30;;;;;;5013855;28;20052;-75
2023/05/12 04:40:27;;;;;;;3.42;2.97;;;20.60;50.00;;;;;;4997181;28;20030;-81
2023/05/12 04:42:53;;;;;;;5.32;2.70;;;20.80;49.80;;;;;;5016878;28;20038;-79
2023/05/12 04:45:19;;;;;;;4.78;3.05;;;21.00;49.60;;;;;;4998853;28;20523;-78
2023/05/12 04:47:46;;;;;;;7.13;2.50;;;21.10;49.40;;;;;;5013677;28;20037;-78
2023/05/12 04:50:12;;;;;;;3.33;2.50;;;21.20;49.20;;;;;;5030870;28;20037;-76
2023/05/12 04:52:38;;;;;;;4.43;2.80;;;21.40;49.20;;;;;;5012652;28;20041;-77
2023/05/12 04:55:05;;;;;;;4.88;2.45;;;21.40;49.00;;;;;;5013819;28;20091;-77
2023/05/12 04:57:31;;;;;;;3.58;2.50;;;21.50;49.00;;;;;;5014223;28;20203;-77
2023/05/12 04:59:58;;;;;;;3.85;2.40;;;21.50;49.00;;;;;;5013571;28;20390;-77
2023/05/12 05:02:26;;;;;;;3.55;2.58;;;21.60;49.20;;;;;;5012434;28;20074;-79
2023/05/12 05:04:53;;;;;;;4.20;2.40;;;21.70;49.00;;;;;;5014071;28;20416;-78
2023/05/12 05:07:22;;;;;;;2.70;2.20;;;21.90;48.90;;;;;;5000951;28;20037;-77
2023/05/12 05:09:48;;;;;;;3.35;2.22;;;22.00;48.60;;;;;;4996511;28;20463;-78
2023/05/12 05:12:14;;;;;;;4.07;2.10;;;22.20;48.60;;;;;;5013223;28;20038;-76
2023/05/12 05:14:40;;;;;;;2.70;2.17;;;22.40;48.40;;;;;;5013045;28;20095;-79
2023/05/12 05:17:06;;;;;;;3.22;2.40;;;22.60;48.20;;;;;;5013805;28;20487;-79
2023/05/12 05:19:34;;;;;;;4.50;2.30;;;22.90;48.00;;;;;;5030291;28;20056;-78
2023/05/12 05:22:00;;;;;;;3.05;2.38;;;23.10;47.80;;;;;;5043729;28;20045;-80
2023/05/12 05:24:26;;;;;;;2.55;2.05;;;23.30;47.60;;;;;;5012316;28;20539;-78
2023/05/12 05:26:53;;;;;;;4.85;2.60;;;23.50;47.30;;;;;;5013552;28;20049;-79
2023/05/12 05:29:19;;;;;;;3.13;2.40;;;23.70;47.10;;;;;;5000649;28;20124;-79
2023/05/12 05:31:45;;;;;;;4.65;2.13;;;23.90;47.00;;;;;;5013842;28;20038;-79
2023/05/12 05:34:13;;;;;;;4.03;2.58;;;24.00;46.70;;;;;;5013678;28;20037;-80
2023/05/12 05:36:39;;;;;;;5.05;2.50;;;24.20;46.80;;;;;;5045145;28;20038;-79
2023/05/12 05:39:05;;;;;;;4.75;2.35;;;24.40;46.80;;;;;;5013698;28;20469;-80
2023/05/12 05:41:31;;;;;;;7.75;3.15;;;24.50;46.60;;;;;;5013512;28;20021;-76
2023/05/12 05:43:57;;;;;;;6.30;3.50;;;24.60;51.50;;;;;;5013756;28;20030;-76
2023/05/12 05:46:23;;;;;;;6.10;3.17;;;24.50;52.70;;;;;;5014207;28;20087;-82
2023/05/12 05:48:49;;;;;;;7.32;3.00;;;24.50;52.00;;;;;;5012881;28;20034;-86
2023/05/12 05:51:15;;;;;;;5.40;3.00;;;24.50;51.60;;;;;;5017186;28;20106;-75
2023/05/12 05:53:42;;;;;;;5.80;2.75;;;24.50;51.80;;;;;;5005219;28;20050;-76
2023/05/12 05:56:09;;;;;;;7.38;3.10;;;24.50;50.90;;;;;;5017244;28;20073;-82
2023/05/12 05:58:35;;;;;;;4.63;2.63;;;24.50;51.20;;;;;;5049230;28;20037;-82
2023/05/12 06:01:03;;;;;;;8.77;2.90;;;24.40;51.30;;;;;;5005515;28;20049;-83
2023/05/12 06:03:31;;;;;;;7.55;2.72;;;24.40;50.80;;;;;;5018663;28;20519;-83
2023/05/12 06:05:57;;;;;;;4.45;2.45;;;24.40;51.40;;;;;;5017364;28;20036;-78
2023/05/12 06:08:23;;;;;;;8.05;3.20;;;24.40;51.30;;;;;;5017165;28;20112;-86
2023/05/12 06:10:49;;;;;;;5.40;3.35;;;24.50;51.00;;;;;;5017896;28;20113;-83
2023/05/12 06:13:17;;;;;;;4.80;3.15;;;24.40;50.70;;;;;;5016103;28;20037;-85
2023/05/12 06:15:43;;;;;;;6.68;3.60;;;24.40;50.60;;;;;;5018089;28;20504;-85
2023/05/12 06:18:11;;;;;;;5.47;3.47;;;24.40;50.50;;;;;;5016570;28;20057;-85
2023/05/12 06:20:37;;;;;;;5.50;3.55;;;24.40;50.30;;;;;;5016399;28;20388;-81
2023/05/12 06:23:03;;;;;;;6.03;3.22;;;24.40;50.00;;;;;;5019039;28;20061;-87
2023/05/12 06:25:29;;;;;;;5.38;3.00;;;24.40;49.80;;;;;;5016784;28;20515;-85
2023/05/12 06:27:55;;;;;;;5.85;3.13;;;24.40;49.90;;;;;;5014839;28;20057;-76
2023/05/12 06:30:21;;;;;;;5.88;2.75;;;24.40;49.80;;;;;;5017155;28;20053;-87
2023/05/12 06:32:47;;;;;;;4.75;2.80;;;24.40;49.70;;;;;;5016546;28;20034;-80
2023/05/12 06:35:12;;;;;;;6.90;2.63;;;24.40;49.60;;;;;;5003587;28;20088;-81
2023/05/12 06:37:38;;;;;;;7.22;2.80;;;24.40;49.40;;;;;;5017254;28;20034;-82
2023/05/12 06:40:06;;;;;;;5.38;2.78;;;24.40;48.40;;;;;;5016745;28;20037;-84
2023/05/12 06:42:32;;;;;;;3.65;2.22;;;24.40;48.50;;;;;;5017798;28;20034;-78
2023/05/12 06:44:59;;;;;;;3.53;2.50;;;24.40;47.70;;;;;;5015262;28;20087;-76
2023/05/12 06:47:25;;;;;;;3.13;2.20;;;24.40;47.90;;;;;;5017428;28;20037;-85
2023/05/12 06:49:51;;;;;;;3.25;2.55;;;24.40;48.20;;;;;;5016369;28;20034;-83
2023/05/12 06:52:19;;;;;;;3.75;2.15;;;24.40;48.00;;;;;;5015374;28;20041;-83
2023/05/12 06:54:45;;;;;;;6.75;2.30;;;24.30;47.40;;;;;;5016248;28;20076;-83
2023/05/12 06:57:11;;;;;;;4.22;2.00;;;24.40;47.00;;;;;;5018967;28;20073;-83
2023/05/12 06:59:37;;;;;;;5.50;2.38;;;24.40;46.40;;;;;;5016852;28;20041;-82
2023/05/12 07:02:03;;;;;;;3.90;2.10;;;24.40;46.80;;;;;;5017731;28;20124;-83
2023/05/12 07:04:28;;;;;;;3.72;2.15;;;24.40;46.60;;;;;;5017882;28;20044;-82
2023/05/12 07:06:55;;;;;;;4.05;2.05;;;24.40;46.00;;;;;;5016920;28;20038;-79
2023/05/12 07:09:21;;;;;;;7.80;2.30;;;24.40;45.80;;;;;;5017614;28;20040;-83
2023/05/12 07:11:47;;;;;;;2.60;2.00;;;24.40;42.30;;;;;;5015247;28;20037;-82
2023/05/12 07:14:13;;;;;;;6.65;2.00;;;24.40;44.20;;;;;;5016482;28;20063;-82
2023/05/12 07:16:39;;;;;;;2.47;1.75;;;24.50;42.90;;;;;;5036635;28;20040;-87
2023/05/12 07:19:07;;;;;;;6.13;1.95;;;24.50;41.90;;;;;;5035895;28;20034;-83
2023/05/12 07:21:34;;;;;;;4.10;2.13;;;24.40;43.20;;;;;;5036407;28;20029;-84
2023/05/12 07:24:00;;;;;;;4.05;1.75;;;24.40;43.30;;;;;;5023421;28;20471;-77
2023/05/12 07:26:27;;;;;;;4.05;1.83;;;24.60;43.10;;;;;;5035738;28;20501;-82
2023/05/12 07:28:53;;;;;;;3.30;2.03;;;24.60;41.90;;;;;;5036304;28;20092;-83
2023/05/12 07:31:19;;;;;;;7.18;2.40;;;24.60;43.40;;;;;;5037021;28;20087;-87
2023/05/12 07:33:45;;;;;;;4.72;1.90;;;24.40;44.50;;;;;;5045333;28;20523;-77
2023/05/12 07:36:11;;;;;;;5.15;2.03;;;24.70;43.90;;;;;;5044834;28;20045;-76
2023/05/12 07:38:37;;;;;;;5.70;1.88;;;25.00;42.90;;;;;;5043605;28;20034;-76
2023/05/12 07:41:03;;;;;;;7.03;1.98;;;25.20;41.50;;;;;;5035900;28;20124;-75
2023/05/12 07:43:29;;;;;;;6.68;2.35;;;25.20;40.10;;;;;;5036386;28;20044;-76
2023/05/12 07:45:55;;;;;;;4.68;2.15;;;25.20;40.80;;;;;;5035639;28;20042;-74
2023/05/12 07:48:21;;;;;;;3.20;1.75;;;25.20;39.30;;;;;;5035139;28;20040;-77
2023/05/12 07:50:47;;;;;;;5.28;2.22;;;25.30;37.10;;;;;;5034698;28;20041;-76
2023/05/12 07:53:13;;;;;;;5.45;2.42;;;25.20;39.60;;;;;;5036439;28;20036;-78
2023/05/12 07:55:40;;;;;;;4.18;2.58;;;25.20;39.90;;;;;;5034420;28;20120;-80
2023/05/12 07:58:05;;;;;;;2.60;2.40;;;25.20;40.70;;;;;;5035979;28;20149;-86
2023/05/12 08:00:31;;;;;;;3.83;1.92;;;25.20;38.70;;;;;;5037139;28;20534;-86
2023/05/12 08:02:57;;;;;;;5.30;2.00;;;25.20;37.20;;;;;;5036664;28;20049;-87
2023/05/12 08:05:23;;;;;;;3.80;2.53;;;25.10;37.80;;;;;;5037399;28;20025;-89
2023/05/12 08:07:49;;;;;;;4.53;2.47;;;25.10;39.90;;;;;;5035442;28;20021;-84
2023/05/12 08:10:15;;;;;;;3.97;2.42;;;25.00;38.80;;;;;;5033702;28;20414;-79
2023/05/12 08:12:42;;;;;;;3.28;1.98;;;25.00;38.20;;;;;;5035539;28;20029;-83
2023/05/12 08:15:09;;;;;;;3.30;2.15;;;25.00;36.90;;;;;;5042801;28;20115;-80
2023/05/12 08:17:36;;;;;;;2.80;2.08;;;25.00;37.40;;;;;;5040334;28;20099;-84
2023/05/12 08:20:05;;;;;;;2.00;1.80;;;24.90;36.10;;;;;;5040066;28;20035;-84
2023/05/12 08:22:32;;;;;;;7.28;1.80;;;24.80;36.80;;;;;;5041025;28;20127;-86
2023/05/12 08:24:58;;;;;;;2.80;2.03;;;24.80;35.20;;;;;;5041638;28;20041;-86
2023/05/12 08:27:24;;;;;;;4.55;2.00;;;24.70;34.40;;;;;;5047609;28;20051;-79
2023/05/12 08:29:50;;;;;;;2.25;1.75;;;24.70;38.60;;;;;;5043844;28;20069;-80
2023/05/12 08:32:16;;;;;;;4.40;2.35;;;24.60;36.20;;;;;;5034013;28;20523;-75
2023/05/12 08:34:42;;;;;;;9.00;2.60;;;24.60;39.10;;;;;;5035539;28;20044;-75
2023/05/12 08:37:08;;;;;;;4.75;2.30;;;24.60;40.40;;;;;;5032069;28;20551;-78
2023/05/12 08:39:34;;;;;;;5.50;2.72;;;24.50;40.60;;;;;;5034997;28;20060;-74
2023/05/12 08:42:12;;;;;;;5.00;2.50;;;24.50;41.70;;;;;;5040279;28;20043;-73
2023/05/12 08:44:39;;;;;;;3.00;2.40;;;24.50;42.10;;;;;;5039734;28;20037;-74
2023/05/12 08:47:06;;;;;;;6.03;2.17;;;24.40;39.60;;;;;;5035853;28;20061;-72
2023/05/12 08:49:34;;;;;;;5.55;2.22;;;24.40;37.10;;;;;;5035495;28;20542;-73
2023/05/12 08:52:01;;;;;;;2.72;1.90;;;24.40;37.00;;;;;;5038636;28;20442;-88
2023/05/12 08:54:28;;;;;;;4.65;2.10;;;24.40;35.80;;;;;;5017693;28;20417;-75
2023/05/12 08:56:55;;;;;;;5.28;2.70;;;24.40;35.90;;;;;;5035411;28;20589;-74
2023/05/12 08:59:23;;;;;;;3.38;3.08;;;24.40;41.30;;;;;;5034269;28;20067;-73
2023/05/12 09:01:49;;;;;;;3.40;2.53;;;24.30;45.90;;;;;;5033685;28;20531;-72
2023/05/12 09:04:16;;;;;;;2.63;2.42;;;24.30;40.10;;;;;;5033960;28;20033;-72
2023/05/12 09:06:43;;;;;;;5.78;2.38;;;24.30;38.30;;;;;;5033454;28;20086;-72
2023/05/12 09:09:11;;;;;;;7.03;3.10;;;24.30;35.90;;;;;;5033603;28;20064;-73
2023/05/12 09:11:37;;;;;;;3.35;3.05;;;24.20;44.40;;;;;;5031376;28;20453;-72
2023/05/12 09:14:08;;;;;;;4.03;3.15;;;24.20;45.00;;;;;;5034739;28;20037;-72
2023/05/12 09:16:42;;;;;;;3.58;2.78;;;24.20;40.10;;;;;;5035102;28;20087;-73
2023/05/12 09:19:08;;;;;;;3.88;2.50;;;24.20;44.20;;;;;;5033570;28;20037;-72
2023/05/12 09:21:34;;;;;;;3.25;2.20;;;24.10;37.60;;;;;;5034264;28;20453;-72
2023/05/12 09:24:05;;;;;;;2.80;2.00;;;24.10;36.40;;;;;;5033170;28;20040;-73
2023/05/12 09:26:48;;;;;;;2.67;2.00;;;24.10;34.90;;;;;;5019351;28;20087;-74
2023/05/12 09:29:15;;;;;;;3.42;2.78;;;24.00;34.90;;;;;;5044489;28;20559;-69
2023/05/12 09:31:54;;;;;;;6.47;2.55;;;24.00;39.10;;;;;;5045694;28;20048;-70
2023/05/12 09:34:37;;;;;;;3.35;2.75;;;24.00;37.10;;;;;;5045862;28;20180;-69
2023/05/12 09:37:06;;;;;;;3.75;3.05;;;24.00;41.90;;;;;;5034886;28;20045;-69
2023/05/12 09:39:33;;;;;;;4.85;2.80;;;24.00;40.20;;;;;;5042832;28;20036;-69
2023/05/12 09:42:00;;;;;;;5.82;3.40;;;24.00;39.90;;;;;;5036797;28;20128;-69
2023/05/12 09:44:28;;;;;;;4.63;2.88;;;24.00;43.10;;;;;;5041133;28;20068;-69
2023/05/12 09:46:54;;;;;;;4.70;3.03;;;23.90;41.30;;;;;;5041309;28;20123;-69
2023/05/12 09:49:24;;;;;;;5.28;3.40;;;23.90;40.50;;;;;;5034064;28;20029;-69
2023/05/12 09:51:56;;;;;;;5.82;3.28;;;23.90;45.00;;;;;;5032406;28;20041;-69
2023/05/12 09:54:29;;;;;;;9.18;2.75;;;23.90;45.00;;;;;;5032922;28;20444;-69
2023/05/12 09:57:01;;;;;;;5.75;2.97;;;23.90;40.10;;;;;;5021308;28;20048;-69
2023/05/12 09:59:31;;;;;;;7.18;3.38;;;23.80;42.00;;;;;;5033695;28;20044;-69
2023/05/12 10:02:03;;;;;;;7.25;3.03;;;23.90;39.90;;;;;;5032872;28;20030;-69
2023/05/12 10:04:38;;;;;;;5.88;2.72;;;23.80;39.20;;;;;;5033763;28;20072;-69
2023/05/12 10:07:07;;;;;;;3.78;2.63;;;23.70;39.50;;;;;;5033038;28;20025;-70
2023/05/12 10:09:38;;;;;;;6.10;2.63;;;23.70;38.70;;;;;;5032916;28;20033;-70
2023/05/12 10:12:05;;;;;;;2.72;2.25;;;23.70;38.40;;;;;;5033191;28;20682;-70
2023/05/12 10:14:32;;;;;;;4.03;2.35;;;23.70;38.30;;;;;;5064831;28;20079;-70
2023/05/12 10:16:59;;;;;;;3.50;2.20;;;23.70;39.10;;;;;;5034190;28;20033;-69
2023/05/12 10:19:27;;;;;;;8.10;2.90;;;23.70;38.80;;;;;;5033948;28;20044;-70
2023/05/12 10:21:56;;;;;;;6.55;3.10;;;23.70;42.10;;;;;;5033206;28;20495;-69
2023/05/12 10:24:28;;;;;;;6.13;3.28;;;23.70;42.50;;;;;;5034015;28;20028;-70
2023/05/12 10:26:55;;;;;;;12.48;3.17;;;23.70;44.80;;;;;;5033436;28;20099;-70
2023/05/12 10:29:31;;;;;;;4.95;3.10;;;23.60;40.70;;;;;;5033677;28;20120;-70
2023/05/12 10:32:02;;;;;;;6.50;3.10;;;23.60;39.50;;;;;;5065054;28;20037;-70
2023/05/12 10:34:35;;;;;;;7.82;2.70;;;23.60;38.20;;;;;;5033211;28;20049;-70
2023/05/12 10:37:07;;;;;;;3.15;2.70;;;23.70;37.00;;;;;;5033280;28;20029;-69
2023/05/12 10:39:33;;;;;;;4.40;2.92;;;23.60;37.80;;;;;;5037915;28;20108;-70
2023/05/12 10:42:07;;;;;;;7.28;2.50;;;23.60;41.80;;;;;;5037079;28;20045;-70
2023/05/12 10:44:35;;;;;;;6.50;2.72;;;23.60;38.60;;;;;;5035846;28;20110;-70
2023/05/12 10:47:11;;;;;;;5.22;2.85;;;23.60;37.80;;;;;;5035810;28;20127;-70
2023/05/12 10:49:41;;;;;;;5.85;2.78;;;23.60;41.20;;;;;;5037439;28;20500;-69
2023/05/12 10:52:11;;;;;;;4.18;2.58;;;23.60;38.00;;;;;;5034273;28;20381;-69
2023/05/12 10:54:43;;;;;;;4.70;2.53;;;23.60;43.30;;;;;;5035889;28;20049;-69
2023/05/12 10:57:19;;;;;;;4.43;2.50;;;23.60;38.10;;;;;;5035348;28;20495;-69
2023/05/12 10:59:49;;;;;;;2.50;2.30;;;23.60;37.20;;;;;;5068504;28;20033;-69
2023/05/12 11:02:22;;;;;;;9.63;2.88;;;23.50;37.10;;;;;;5036638;28;20412;-69
2023/05/12 11:05:04;;;;;;;4.93;2.38;;;23.50;38.60;;;;;;5038173;28;20055;-68
2023/05/12 11:07:32;;;;;;;3.70;2.28;;;23.50;36.70;;;;;;5036025;28;20037;-70
2023/05/12 11:10:02;;;;;;;3.97;2.45;;;23.50;38.10;;;;;;5035807;28;20579;-70
2023/05/12 11:12:32;;;;;;;5.72;2.60;;;23.50;38.30;;;;;;5035065;28;20041;-70
2023/05/12 11:15:02;;;;;;;3.63;2.40;;;23.40;38.40;;;;;;5035543;28;20433;-70
2023/05/12 11:17:28;;;;;;;3.53;2.15;;;23.40;37.50;;;;;;5037798;28;20034;-70
2023/05/12 11:19:54;;;;;;;3.67;2.80;;;23.40;37.40;;;;;;5036793;28;20021;-70
2023/05/12 11:22:21;;;;;;;3.55;2.50;;;23.40;37.10;;;;;;5036096;28;20039;-70
2023/05/12 11:24:51;;;;;;;3.83;2.50;;;23.40;36.90;;;;;;5034205;28;20132;-77
2023/05/12 11:27:30;;;;;;;3.38;2.22;;;23.40;36.10;;;;;;5067335;28;20412;-77
2023/05/12 11:30:09;;;;;;;4.93;2.22;;;23.30;35.30;;;;;;5036451;28;20118;-77
2023/05/12 11:32:41;;;;;;;7.00;2.60;;;23.30;35.20;;;;;;5034020;28;20503;-76
2023/05/12 11:35:16;;;;;;;3.28;1.80;;;23.30;35.60;;;;;;5036618;28;20040;-77
2023/05/12 11:37:44;;;;;;;4.35;2.40;;;23.30;35.70;;;;;;5035061;28;20044;-75
2023/05/12 11:40:21;;;;;;;3.80;2.28;;;23.30;35.60;;;;;;5035018;28;20041;-75
2023/05/12 11:42:51;;;;;;;5.28;2.13;;;23.30;34.70;;;;;;5036418;28;20042;-73
2023/05/12 11:45:24;;;;;;;7.13;2.88;;;23.30;34.90;;;;;;5033789;28;20043;-78
2023/05/12 11:47:52;;;;;;;7.78;2.70;;;23.30;34.80;;;;;;5034603;28;20030;-82
2023/05/12 11:50:24;;;;;;;9.65;2.50;;;23.30;37.20;;;;;;5035485;28;20040;-73
2023/05/12 11:52:51;;;;;;;12.52;2.85;;;23.30;38.00;;;;;;5034648;28;20029;-73
2023/05/12 11:55:49;;;;;;;;;;;;;;;;;;;;;
2023/05/12 11:59:09;;;;;;;;;;;;;;;;;;;;;
2023/05/12 12:01:45;;;;;;;10.27;2.63;;;23.30;38.80;;;;;;5038050;28;20056;-80
2023/05/12 12:04:40;;;;;;;10.68;2.45;;;23.30;36.80;;;;;;5074243;28;20064;-80
2023/05/12 12:11:11;;;;;;;5.65;2.38;;;23.30;36.90;;;;;;4934544;29;20047;-77
2023/05/12 12:13:37;;;;;;;;;;;23.30;37.10;;;;;;4951110;28;20048;-78
2023/05/12 12:16:03;;;;;;;7.88;2.10;;;23.30;37.00;;;;;;4936487;28;19944;-78
2023/05/12 12:18:32;;;;;;;5.00;2.28;;;23.30;37.10;;;;;;4934817;28;20036;-79
2023/05/12 12:21:00;;;;;;;21.73;3.08;;;23.30;37.40;;;;;;4935406;28;20032;-77
2023/05/12 12:23:26;;;;;;;16.05;2.30;;;23.20;36.60;;;;;;4918560;28;20077;-76
2023/05/12 12:25:52;;;;;;;6.93;1.95;;;23.20;35.70;;;;;;4935765;29;20039;-78
2023/05/12 12:28:21;;;;;;;5.00;2.08;;;23.20;35.00;;;;;;4927419;28;20414;-79
2023/05/12 12:30:47;;;;;;;3.60;1.98;;;23.20;34.70;;;;;;4919099;29;20043;-78
2023/05/12 12:33:13;;;;;;;3.80;1.80;;;23.20;34.60;;;;;;4935250;28;20047;-80
2023/05/12 12:35:43;;;;;;;3.92;1.85;;;23.20;35.20;;;;;;4934954;28;20031;-79
2023/05/12 12:38:13;;;;;;;3.78;2.42;;;23.20;35.20;;;;;;4935372;29;20027;-79
2023/05/12 12:40:42;;;;;;;7.63;2.50;;;23.20;36.60;;;;;;4958731;28;20061;-80
2023/05/12 12:43:12;;;;;;;3.75;2.30;;;23.20;36.70;;;;;;4958040;28;20035;-91
2023/05/12 12:45:38;;;;;;;5.68;2.00;;;23.20;37.10;;;;;;4944105;28;20117;-87
2023/05/12 12:48:05;;;;;;;6.75;2.42;;;23.20;37.20;;;;;;5010605;28;20124;-87
2023/05/12 12:50:32;;;;;;;5.65;2.22;;;23.20;37.70;;;;;;5022131;28;20399;-84
2023/05/12 12:53:02;;;;;;;6.22;2.10;;;23.20;38.10;;;;;;5031632;28;20041;-83
2023/05/12 12:55:28;;;;;;;12.50;2.80;;;23.20;38.40;;;;;;5035072;28;20065;-84